Terminal Aerodrome Forecast
Issued by NWS Shreveport, LA

Home | Current Version | Previous Version | Text Only | Print | Product List | Glossary On
Versions: 1 2 3 4 5 6 7 8 9 10 11 12 13 14
000
FTUS44 KSHV 291700
TAFSHV
TAF
KSHV 291740Z 2918/3018 28010KT P6SM FEW020 FEW120 SCT160 BKN290
     FM292100 33012G20KT P6SM BKN150
     FM300300 36011KT P6SM BKN250
     FM301200 03007KT P6SM SCT250
     FM301500 06011KT P6SM OVC250=

USA.gov is the U.S. government's official web portal to all federal, state and local government web resources and services.